sensor_id;sensor_type;location;lat;lon;timestamp;P1;durP1;ratioP1;P2;durP2;ratioP2
17570;SDS011;8903;52.220;20.978;2022-10-22T00:02:17;37.90;;;26.40;;
17570;SDS011;8903;52.220;20.978;2022-10-22T00:04:45;39.53;;;28.00;;
17570;SDS011;8903;52.220;20.978;2022-10-22T00:07:12;38.90;;;26.43;;
17570;SDS011;8903;52.220;20.978;2022-10-22T00:09:40;32.87;;;24.33;;
17570;SDS011;8903;52.220;20.978;2022-10-22T00:12:07;35.37;;;25.70;;
17570;SDS011;8903;52.220;20.978;2022-10-22T00:14:35;34.53;;;26.30;;
17570;SDS011;8903;52.220;20.978;2022-10-22T00:17:02;33.60;;;25.97;;
17570;SDS011;8903;52.220;20.978;2022-10-22T00:19:29;38.70;;;26.63;;
17570;SDS011;8903;52.220;20.978;2022-10-22T00:21:56;34.40;;;25.90;;
17570;SDS011;8903;52.220;20.978;2022-10-22T00:24:24;36.20;;;25.80;;
17570;SDS011;8903;52.220;20.978;2022-10-22T00:26:51;34.20;;;26.30;;
17570;SDS011;8903;52.220;20.978;2022-10-22T00:29:18;34.67;;;26.63;;
17570;SDS011;8903;52.220;20.978;2022-10-22T00:31:47;38.93;;;25.90;;
17570;SDS011;8903;52.220;20.978;2022-10-22T00:34:15;32.63;;;25.20;;
17570;SDS011;8903;52.220;20.978;2022-10-22T00:36:44;33.63;;;25.90;;
17570;SDS011;8903;52.220;20.978;2022-10-22T00:39:11;42.87;;;26.10;;
17570;SDS011;8903;52.220;20.978;2022-10-22T00:41:40;34.07;;;24.73;;
17570;SDS011;8903;52.220;20.978;2022-10-22T00:44:07;33.17;;;24.27;;
17570;SDS011;8903;52.220;20.978;2022-10-22T00:47:13;34.00;;;24.37;;
17570;SDS011;8903;52.220;20.978;2022-10-22T00:49:41;28.50;;;22.47;;
17570;SDS011;8903;52.220;20.978;2022-10-22T00:52:09;37.90;;;24.20;;
17570;SDS011;8903;52.220;20.978;2022-10-22T00:54:37;33.47;;;24.80;;
17570;SDS011;8903;52.220;20.978;2022-10-22T00:57:05;34.97;;;25.37;;
17570;SDS011;8903;52.220;20.978;2022-10-22T00:59:32;32.97;;;24.73;;
17570;SDS011;8903;52.220;20.978;2022-10-22T01:01:59;34.20;;;23.30;;
17570;SDS011;8903;52.220;20.978;2022-10-22T01:04:27;32.43;;;23.30;;
17570;SDS011;8903;52.220;20.978;2022-10-22T01:06:54;30.57;;;23.00;;
17570;SDS011;8903;52.220;20.978;2022-10-22T01:09:24;32.20;;;25.17;;
17570;SDS011;8903;52.220;20.978;2022-10-22T01:11:59;32.13;;;23.47;;
17570;SDS011;8903;52.220;20.978;2022-10-22T01:14:34;35.60;;;24.27;;
17570;SDS011;8903;52.220;20.978;2022-10-22T01:17:08;34.87;;;24.60;;
17570;SDS011;8903;52.220;20.978;2022-10-22T01:19:48;38.60;;;23.93;;
17570;SDS011;8903;52.220;20.978;2022-10-22T01:22:25;33.53;;;22.57;;
17570;SDS011;8903;52.220;20.978;2022-10-22T01:24:57;32.30;;;23.73;;
17570;SDS011;8903;52.220;20.978;2022-10-22T01:27:33;33.70;;;24.03;;
17570;SDS011;8903;52.220;20.978;2022-10-22T01:30:11;28.70;;;21.47;;
17570;SDS011;8903;52.220;20.978;2022-10-22T01:32:42;32.67;;;23.80;;
17570;SDS011;8903;52.220;20.978;2022-10-22T01:35:13;33.30;;;25.27;;
17570;SDS011;8903;52.220;20.978;2022-10-22T01:37:45;32.47;;;22.97;;
17570;SDS011;8903;52.220;20.978;2022-10-22T01:40:16;30.57;;;23.20;;
17570;SDS011;8903;52.220;20.978;2022-10-22T01:42:52;31.53;;;23.70;;
17570;SDS011;8903;52.220;20.978;2022-10-22T01:45:23;29.33;;;23.23;;
17570;SDS011;8903;52.220;20.978;2022-10-22T01:47:52;29.97;;;23.20;;
17570;SDS011;8903;52.220;20.978;2022-10-22T01:53:17;28.37;;;23.13;;
17570;SDS011;8903;52.220;20.978;2022-10-22T01:56:01;36.90;;;25.60;;
17570;SDS011;8903;52.220;20.978;2022-10-22T01:58:42;34.50;;;24.70;;
17570;SDS011;8903;52.220;20.978;2022-10-22T02:01:23;31.33;;;24.93;;
17570;SDS011;8903;52.220;20.978;2022-10-22T02:03:58;32.90;;;24.93;;
17570;SDS011;8903;52.220;20.978;2022-10-22T02:06:32;36.57;;;24.43;;
17570;SDS011;8903;52.220;20.978;2022-10-22T02:09:02;36.60;;;26.40;;
17570;SDS011;8903;52.220;20.978;2022-10-22T02:11:31;38.67;;;26.27;;
17570;SDS011;8903;52.220;20.978;2022-10-22T02:13:58;37.03;;;26.70;;
17570;SDS011;8903;52.220;20.978;2022-10-22T02:16:31;34.07;;;26.77;;
17570;SDS011;8903;52.220;20.978;2022-10-22T02:19:02;41.93;;;27.20;;
17570;SDS011;8903;52.220;20.978;2022-10-22T02:21:32;39.20;;;29.00;;
17570;SDS011;8903;52.220;20.978;2022-10-22T02:23:59;35.50;;;27.03;;
17570;SDS011;8903;52.220;20.978;2022-10-22T02:26:27;42.70;;;29.47;;
17570;SDS011;8903;52.220;20.978;2022-10-22T02:28:58;34.17;;;28.27;;
17570;SDS011;8903;52.220;20.978;2022-10-22T02:31:34;43.13;;;27.43;;
17570;SDS011;8903;52.220;20.978;2022-10-22T02:34:05;40.00;;;29.53;;
17570;SDS011;8903;52.220;20.978;2022-10-22T02:36:35;38.30;;;27.90;;
17570;SDS011;8903;52.220;20.978;2022-10-22T02:39:03;32.43;;;26.40;;
17570;SDS011;8903;52.220;20.978;2022-10-22T02:41:32;35.80;;;26.90;;
17570;SDS011;8903;52.220;20.978;2022-10-22T02:43:59;38.60;;;27.30;;
17570;SDS011;8903;52.220;20.978;2022-10-22T02:46:26;41.63;;;28.60;;
17570;SDS011;8903;52.220;20.978;2022-10-22T02:48:55;37.23;;;27.60;;
17570;SDS011;8903;52.220;20.978;2022-10-22T02:51:22;36.17;;;27.67;;
17570;SDS011;8903;52.220;20.978;2022-10-22T02:53:49;43.20;;;31.13;;
17570;SDS011;8903;52.220;20.978;2022-10-22T02:56:16;36.93;;;28.07;;
17570;SDS011;8903;52.220;20.978;2022-10-22T02:58:43;49.40;;;29.80;;
17570;SDS011;8903;52.220;20.978;2022-10-22T03:01:10;36.97;;;30.53;;
17570;SDS011;8903;52.220;20.978;2022-10-22T03:03:37;41.03;;;29.77;;
17570;SDS011;8903;52.220;20.978;2022-10-22T03:06:05;34.90;;;28.30;;
17570;SDS011;8903;52.220;20.978;2022-10-22T03:08:33;45.53;;;30.73;;
17570;SDS011;8903;52.220;20.978;2022-10-22T03:11:00;40.77;;;29.43;;
17570;SDS011;8903;52.220;20.978;2022-10-22T03:13:27;39.97;;;29.13;;
17570;SDS011;8903;52.220;20.978;2022-10-22T03:15:54;40.40;;;28.87;;
17570;SDS011;8903;52.220;20.978;2022-10-22T03:18:21;39.20;;;29.87;;
17570;SDS011;8903;52.220;20.978;2022-10-22T03:20:48;36.37;;;27.60;;
17570;SDS011;8903;52.220;20.978;2022-10-22T03:23:17;40.50;;;31.27;;
17570;SDS011;8903;52.220;20.978;2022-10-22T03:25:45;37.37;;;29.70;;
17570;SDS011;8903;52.220;20.978;2022-10-22T03:28:14;42.27;;;28.60;;
17570;SDS011;8903;52.220;20.978;2022-10-22T03:30:42;38.60;;;28.70;;
17570;SDS011;8903;52.220;20.978;2022-10-22T03:33:09;46.03;;;32.30;;
17570;SDS011;8903;52.220;20.978;2022-10-22T03:35:38;42.57;;;29.40;;
17570;SDS011;8903;52.220;20.978;2022-10-22T03:38:09;40.73;;;29.40;;
17570;SDS011;8903;52.220;20.978;2022-10-22T03:40:37;40.80;;;29.53;;
17570;SDS011;8903;52.220;20.978;2022-10-22T03:43:05;39.50;;;30.50;;
17570;SDS011;8903;52.220;20.978;2022-10-22T03:45:32;45.73;;;29.50;;
17570;SDS011;8903;52.220;20.978;2022-10-22T03:47:58;46.27;;;31.27;;
17570;SDS011;8903;52.220;20.978;2022-10-22T03:50:25;39.23;;;29.07;;
17570;SDS011;8903;52.220;20.978;2022-10-22T03:52:52;47.13;;;31.30;;
17570;SDS011;8903;52.220;20.978;2022-10-22T03:55:19;42.43;;;30.03;;
17570;SDS011;8903;52.220;20.978;2022-10-22T03:57:47;41.13;;;29.27;;
17570;SDS011;8903;52.220;20.978;2022-10-22T04:00:15;47.63;;;31.60;;
17570;SDS011;8903;52.220;20.978;2022-10-22T04:02:42;46.23;;;31.20;;
17570;SDS011;8903;52.220;20.978;2022-10-22T04:05:09;48.57;;;30.63;;
17570;SDS011;8903;52.220;20.978;2022-10-22T04:07:36;49.77;;;31.60;;
17570;SDS011;8903;52.220;20.978;2022-10-22T04:10:04;42.27;;;29.60;;
17570;SDS011;8903;52.220;20.978;2022-10-22T04:12:31;40.43;;;29.30;;
17570;SDS011;8903;52.220;20.978;2022-10-22T04:14:59;42.70;;;31.20;;
17570;SDS011;8903;52.220;20.978;2022-10-22T04:17:31;44.90;;;30.87;;
17570;SDS011;8903;52.220;20.978;2022-10-22T04:19:58;44.10;;;31.13;;
17570;SDS011;8903;52.220;20.978;2022-10-22T04:22:25;43.77;;;29.30;;
17570;SDS011;8903;52.220;20.978;2022-10-22T04:24:52;45.23;;;30.57;;
17570;SDS011;8903;52.220;20.978;2022-10-22T04:27:19;45.87;;;29.83;;
17570;SDS011;8903;52.220;20.978;2022-10-22T04:29:46;42.63;;;28.50;;
17570;SDS011;8903;52.220;20.978;2022-10-22T04:32:14;39.83;;;29.90;;
17570;SDS011;8903;52.220;20.978;2022-10-22T04:34:41;45.63;;;31.47;;
17570;SDS011;8903;52.220;20.978;2022-10-22T04:37:08;40.93;;;29.30;;
17570;SDS011;8903;52.220;20.978;2022-10-22T04:39:35;39.90;;;28.87;;
17570;SDS011;8903;52.220;20.978;2022-10-22T04:42:02;40.87;;;29.50;;
17570;SDS011;8903;52.220;20.978;2022-10-22T04:44:30;46.40;;;30.07;;
17570;SDS011;8903;52.220;20.978;2022-10-22T04:46:57;41.83;;;29.60;;
17570;SDS011;8903;52.220;20.978;2022-10-22T04:49:25;42.07;;;28.50;;
17570;SDS011;8903;52.220;20.978;2022-10-22T04:51:52;41.80;;;29.37;;
17570;SDS011;8903;52.220;20.978;2022-10-22T04:54:19;40.40;;;29.27;;
17570;SDS011;8903;52.220;20.978;2022-10-22T04:56:47;47.23;;;29.57;;
17570;SDS011;8903;52.220;20.978;2022-10-22T04:59:14;49.43;;;30.10;;
17570;SDS011;8903;52.220;20.978;2022-10-22T05:01:41;47.73;;;32.13;;
17570;SDS011;8903;52.220;20.978;2022-10-22T05:04:10;40.63;;;29.80;;
17570;SDS011;8903;52.220;20.978;2022-10-22T05:06:40;42.47;;;30.77;;
17570;SDS011;8903;52.220;20.978;2022-10-22T05:09:09;47.17;;;30.57;;
17570;SDS011;8903;52.220;20.978;2022-10-22T05:11:38;49.40;;;30.67;;
17570;SDS011;8903;52.220;20.978;2022-10-22T05:14:09;40.07;;;29.30;;
17570;SDS011;8903;52.220;20.978;2022-10-22T05:16:37;50.00;;;32.60;;
17570;SDS011;8903;52.220;20.978;2022-10-22T05:19:04;45.93;;;31.67;;
17570;SDS011;8903;52.220;20.978;2022-10-22T05:21:32;46.73;;;30.47;;
17570;SDS011;8903;52.220;20.978;2022-10-22T05:24:00;44.70;;;29.80;;
17570;SDS011;8903;52.220;20.978;2022-10-22T05:26:30;42.20;;;29.47;;
17570;SDS011;8903;52.220;20.978;2022-10-22T05:28:57;44.70;;;30.20;;
17570;SDS011;8903;52.220;20.978;2022-10-22T05:31:24;41.40;;;29.03;;
17570;SDS011;8903;52.220;20.978;2022-10-22T05:33:53;44.80;;;31.07;;
17570;SDS011;8903;52.220;20.978;2022-10-22T05:36:21;45.17;;;30.17;;
17570;SDS011;8903;52.220;20.978;2022-10-22T05:38:48;44.43;;;28.67;;
17570;SDS011;8903;52.220;20.978;2022-10-22T05:41:17;39.60;;;29.13;;
17570;SDS011;8903;52.220;20.978;2022-10-22T05:43:46;40.60;;;28.50;;
17570;SDS011;8903;52.220;20.978;2022-10-22T05:46:14;43.53;;;28.17;;
17570;SDS011;8903;52.220;20.978;2022-10-22T05:48:42;38.00;;;28.63;;
17570;SDS011;8903;52.220;20.978;2022-10-22T05:51:09;41.50;;;29.87;;
17570;SDS011;8903;52.220;20.978;2022-10-22T05:53:38;45.63;;;29.67;;
17570;SDS011;8903;52.220;20.978;2022-10-22T05:56:07;41.13;;;31.23;;
17570;SDS011;8903;52.220;20.978;2022-10-22T05:58:40;40.40;;;29.10;;
17570;SDS011;8903;52.220;20.978;2022-10-22T06:01:10;45.33;;;30.07;;
17570;SDS011;8903;52.220;20.978;2022-10-22T06:03:38;39.83;;;27.63;;
17570;SDS011;8903;52.220;20.978;2022-10-22T06:06:06;35.63;;;28.37;;
17570;SDS011;8903;52.220;20.978;2022-10-22T06:08:43;34.80;;;27.00;;
17570;SDS011;8903;52.220;20.978;2022-10-22T06:11:10;34.27;;;26.50;;
17570;SDS011;8903;52.220;20.978;2022-10-22T06:13:39;36.60;;;26.60;;
17570;SDS011;8903;52.220;20.978;2022-10-22T06:16:06;43.10;;;29.27;;
17570;SDS011;8903;52.220;20.978;2022-10-22T06:18:32;36.63;;;27.03;;
17570;SDS011;8903;52.220;20.978;2022-10-22T06:21:04;37.87;;;26.43;;
17570;SDS011;8903;52.220;20.978;2022-10-22T06:23:32;38.73;;;26.50;;
17570;SDS011;8903;52.220;20.978;2022-10-22T06:25:59;36.50;;;27.30;;
17570;SDS011;8903;52.220;20.978;2022-10-22T06:28:27;36.63;;;25.37;;
17570;SDS011;8903;52.220;20.978;2022-10-22T06:30:57;29.97;;;24.47;;
17570;SDS011;8903;52.220;20.978;2022-10-22T06:33:25;33.47;;;24.63;;
17570;SDS011;8903;52.220;20.978;2022-10-22T06:35:52;34.10;;;25.83;;
17570;SDS011;8903;52.220;20.978;2022-10-22T06:38:19;32.77;;;24.77;;
17570;SDS011;8903;52.220;20.978;2022-10-22T06:40:46;32.20;;;25.30;;
17570;SDS011;8903;52.220;20.978;2022-10-22T06:43:13;33.93;;;26.30;;
17570;SDS011;8903;52.220;20.978;2022-10-22T06:45:40;35.10;;;24.77;;
17570;SDS011;8903;52.220;20.978;2022-10-22T06:48:09;33.10;;;24.17;;
17570;SDS011;8903;52.220;20.978;2022-10-22T06:50:36;30.03;;;25.23;;
17570;SDS011;8903;52.220;20.978;2022-10-22T06:53:03;31.90;;;25.03;;
17570;SDS011;8903;52.220;20.978;2022-10-22T06:55:31;31.93;;;24.07;;
17570;SDS011;8903;52.220;20.978;2022-10-22T06:57:58;43.13;;;24.63;;
17570;SDS011;8903;52.220;20.978;2022-10-22T07:00:25;31.70;;;23.63;;
17570;SDS011;8903;52.220;20.978;2022-10-22T07:02:52;35.70;;;23.30;;
17570;SDS011;8903;52.220;20.978;2022-10-22T07:05:21;30.83;;;23.70;;
17570;SDS011;8903;52.220;20.978;2022-10-22T07:07:48;29.23;;;22.00;;
17570;SDS011;8903;52.220;20.978;2022-10-22T07:10:16;27.70;;;21.30;;
17570;SDS011;8903;52.220;20.978;2022-10-22T07:12:43;30.33;;;21.67;;
17570;SDS011;8903;52.220;20.978;2022-10-22T07:15:09;29.90;;;21.37;;
17570;SDS011;8903;52.220;20.978;2022-10-22T07:17:36;31.47;;;22.77;;
17570;SDS011;8903;52.220;20.978;2022-10-22T07:20:04;29.80;;;23.33;;
17570;SDS011;8903;52.220;20.978;2022-10-22T07:22:33;29.07;;;21.87;;
17570;SDS011;8903;52.220;20.978;2022-10-22T07:25:00;30.23;;;23.00;;
17570;SDS011;8903;52.220;20.978;2022-10-22T07:27:27;40.03;;;22.93;;
17570;SDS011;8903;52.220;20.978;2022-10-22T07:29:53;32.30;;;21.63;;
17570;SDS011;8903;52.220;20.978;2022-10-22T07:32:20;31.50;;;22.00;;
17570;SDS011;8903;52.220;20.978;2022-10-22T07:34:49;31.60;;;23.37;;
17570;SDS011;8903;52.220;20.978;2022-10-22T07:37:16;29.53;;;22.03;;
17570;SDS011;8903;52.220;20.978;2022-10-22T07:39:47;33.13;;;23.37;;
17570;SDS011;8903;52.220;20.978;2022-10-22T07:42:14;29.27;;;23.80;;
17570;SDS011;8903;52.220;20.978;2022-10-22T07:44:41;32.93;;;22.77;;
17570;SDS011;8903;52.220;20.978;2022-10-22T07:47:08;29.83;;;22.80;;
17570;SDS011;8903;52.220;20.978;2022-10-22T07:49:35;32.83;;;24.03;;
17570;SDS011;8903;52.220;20.978;2022-10-22T07:52:02;33.37;;;25.27;;
17570;SDS011;8903;52.220;20.978;2022-10-22T07:54:29;31.77;;;23.23;;
17570;SDS011;8903;52.220;20.978;2022-10-22T07:56:57;35.43;;;25.30;;
17570;SDS011;8903;52.220;20.978;2022-10-22T07:59:24;30.90;;;24.03;;
17570;SDS011;8903;52.220;20.978;2022-10-22T08:01:51;32.90;;;23.13;;
17570;SDS011;8903;52.220;20.978;2022-10-22T08:04:18;34.77;;;23.93;;
17570;SDS011;8903;52.220;20.978;2022-10-22T08:06:45;35.50;;;22.23;;
17570;SDS011;8903;52.220;20.978;2022-10-22T08:09:12;34.33;;;23.13;;
17570;SDS011;8903;52.220;20.978;2022-10-22T08:11:39;36.20;;;22.83;;
17570;SDS011;8903;52.220;20.978;2022-10-22T08:14:07;31.30;;;25.00;;
17570;SDS011;8903;52.220;20.978;2022-10-22T08:16:34;31.83;;;24.07;;
17570;SDS011;8903;52.220;20.978;2022-10-22T08:19:01;29.33;;;22.70;;
17570;SDS011;8903;52.220;20.978;2022-10-22T08:21:28;29.50;;;22.37;;
17570;SDS011;8903;52.220;20.978;2022-10-22T08:23:56;28.03;;;21.97;;
17570;SDS011;8903;52.220;20.978;2022-10-22T08:26:23;29.73;;;21.83;;
17570;SDS011;8903;52.220;20.978;2022-10-22T08:28:49;31.30;;;22.63;;
17570;SDS011;8903;52.220;20.978;2022-10-22T08:31:18;25.50;;;20.00;;
17570;SDS011;8903;52.220;20.978;2022-10-22T08:33:44;27.30;;;20.30;;
17570;SDS011;8903;52.220;20.978;2022-10-22T08:36:11;26.87;;;20.93;;
17570;SDS011;8903;52.220;20.978;2022-10-22T08:38:38;30.63;;;20.33;;
17570;SDS011;8903;52.220;20.978;2022-10-22T08:41:07;27.37;;;21.37;;
17570;SDS011;8903;52.220;20.978;2022-10-22T08:46:33;27.70;;;20.07;;
17570;SDS011;8903;52.220;20.978;2022-10-22T08:49:13;28.47;;;20.17;;
17570;SDS011;8903;52.220;20.978;2022-10-22T08:51:45;23.73;;;19.27;;
17570;SDS011;8903;52.220;20.978;2022-10-22T08:54:16;24.80;;;20.37;;
17570;SDS011;8903;52.220;20.978;2022-10-22T08:56:53;25.77;;;20.27;;
17570;SDS011;8903;52.220;20.978;2022-10-22T08:59:43;26.50;;;19.60;;
17570;SDS011;8903;52.220;20.978;2022-10-22T09:02:27;25.80;;;19.20;;
17570;SDS011;8903;52.220;20.978;2022-10-22T09:05:05;25.27;;;19.10;;
17570;SDS011;8903;52.220;20.978;2022-10-22T09:07:44;28.83;;;19.00;;
17570;SDS011;8903;52.220;20.978;2022-10-22T09:10:15;28.13;;;20.20;;
17570;SDS011;8903;52.220;20.978;2022-10-22T09:12:45;25.73;;;20.17;;
17570;SDS011;8903;52.220;20.978;2022-10-22T09:15:13;27.37;;;19.87;;
17570;SDS011;8903;52.220;20.978;2022-10-22T09:17:51;30.73;;;20.30;;
17570;SDS011;8903;52.220;20.978;2022-10-22T09:20:27;27.40;;;21.03;;
17570;SDS011;8903;52.220;20.978;2022-10-22T09:23:04;25.90;;;19.60;;
17570;SDS011;8903;52.220;20.978;2022-10-22T09:25:49;28.37;;;19.73;;
17570;SDS011;8903;52.220;20.978;2022-10-22T09:28:17;30.23;;;23.30;;
17570;SDS011;8903;52.220;20.978;2022-10-22T09:30:44;29.90;;;22.97;;
17570;SDS011;8903;52.220;20.978;2022-10-22T09:33:14;37.40;;;26.57;;
17570;SDS011;8903;52.220;20.978;2022-10-22T09:35:46;34.10;;;25.70;;
17570;SDS011;8903;52.220;20.978;2022-10-22T09:38:17;41.47;;;27.03;;
17570;SDS011;8903;52.220;20.978;2022-10-22T09:40:47;41.77;;;28.07;;
17570;SDS011;8903;52.220;20.978;2022-10-22T09:43:16;37.13;;;27.07;;
17570;SDS011;8903;52.220;20.978;2022-10-22T09:45:44;39.47;;;26.70;;
17570;SDS011;8903;52.220;20.978;2022-10-22T09:48:16;43.63;;;26.87;;
17570;SDS011;8903;52.220;20.978;2022-10-22T09:50:54;47.43;;;27.37;;
17570;SDS011;8903;52.220;20.978;2022-10-22T09:53:24;44.20;;;28.43;;
17570;SDS011;8903;52.220;20.978;2022-10-22T09:55:54;53.87;;;28.27;;
17570;SDS011;8903;52.220;20.978;2022-10-22T09:58:23;45.60;;;27.87;;
17570;SDS011;8903;52.220;20.978;2022-10-22T10:00:51;43.20;;;28.63;;
17570;SDS011;8903;52.220;20.978;2022-10-22T10:03:22;43.90;;;28.90;;
17570;SDS011;8903;52.220;20.978;2022-10-22T10:05:51;45.00;;;27.97;;
17570;SDS011;8903;52.220;20.978;2022-10-22T10:08:19;44.03;;;28.00;;
17570;SDS011;8903;52.220;20.978;2022-10-22T10:10:47;42.23;;;27.03;;
17570;SDS011;8903;52.220;20.978;2022-10-22T10:13:27;39.33;;;26.97;;
17570;SDS011;8903;52.220;20.978;2022-10-22T10:16:05;40.03;;;26.00;;
17570;SDS011;8903;52.220;20.978;2022-10-22T10:18:42;38.43;;;27.17;;
17570;SDS011;8903;52.220;20.978;2022-10-22T10:21:25;33.20;;;24.90;;
17570;SDS011;8903;52.220;20.978;2022-10-22T10:24:02;33.67;;;24.80;;
17570;SDS011;8903;52.220;20.978;2022-10-22T10:26:38;34.93;;;25.50;;
17570;SDS011;8903;52.220;20.978;2022-10-22T10:29:17;37.80;;;24.53;;
17570;SDS011;8903;52.220;20.978;2022-10-22T10:31:57;36.30;;;25.27;;
17570;SDS011;8903;52.220;20.978;2022-10-22T10:34:36;30.63;;;22.97;;
17570;SDS011;8903;52.220;20.978;2022-10-22T10:37:12;30.40;;;23.73;;
17570;SDS011;8903;52.220;20.978;2022-10-22T10:39:50;31.80;;;23.50;;
17570;SDS011;8903;52.220;20.978;2022-10-22T10:42:30;30.63;;;23.77;;
17570;SDS011;8903;52.220;20.978;2022-10-22T10:45:05;32.53;;;23.20;;
17570;SDS011;8903;52.220;20.978;2022-10-22T10:47:45;37.80;;;23.70;;
17570;SDS011;8903;52.220;20.978;2022-10-22T10:50:37;29.40;;;22.23;;
17570;SDS011;8903;52.220;20.978;2022-10-22T10:53:16;34.07;;;22.87;;
17570;SDS011;8903;52.220;20.978;2022-10-22T10:55:52;36.60;;;23.53;;
17570;SDS011;8903;52.220;20.978;2022-10-22T10:58:29;32.70;;;24.50;;
17570;SDS011;8903;52.220;20.978;2022-10-22T11:01:02;32.90;;;24.17;;
17570;SDS011;8903;52.220;20.978;2022-10-22T11:03:52;34.63;;;24.60;;
17570;SDS011;8903;52.220;20.978;2022-10-22T11:06:39;34.67;;;24.30;;
17570;SDS011;8903;52.220;20.978;2022-10-22T11:09:18;45.63;;;24.50;;
17570;SDS011;8903;52.220;20.978;2022-10-22T11:11:50;38.83;;;25.53;;
17570;SDS011;8903;52.220;20.978;2022-10-22T11:14:20;41.27;;;26.20;;
17570;SDS011;8903;52.220;20.978;2022-10-22T11:16:54;35.93;;;26.07;;
17570;SDS011;8903;52.220;20.978;2022-10-22T11:19:26;43.30;;;26.30;;
17570;SDS011;8903;52.220;20.978;2022-10-22T11:22:00;39.80;;;26.40;;
17570;SDS011;8903;52.220;20.978;2022-10-22T11:24:32;31.93;;;23.80;;
17570;SDS011;8903;52.220;20.978;2022-10-22T11:27:04;38.23;;;25.60;;
17570;SDS011;8903;52.220;20.978;2022-10-22T11:29:38;41.10;;;27.10;;
17570;SDS011;8903;52.220;20.978;2022-10-22T11:32:09;47.13;;;26.30;;
17570;SDS011;8903;52.220;20.978;2022-10-22T11:34:41;44.97;;;25.37;;
17570;SDS011;8903;52.220;20.978;2022-10-22T11:37:13;39.87;;;24.93;;
17570;SDS011;8903;52.220;20.978;2022-10-22T11:39:42;40.80;;;26.17;;
17570;SDS011;8903;52.220;20.978;2022-10-22T11:42:16;43.27;;;25.60;;
17570;SDS011;8903;52.220;20.978;2022-10-22T11:44:45;34.60;;;25.47;;
17570;SDS011;8903;52.220;20.978;2022-10-22T11:47:16;43.93;;;25.20;;
17570;SDS011;8903;52.220;20.978;2022-10-22T11:49:46;41.47;;;27.87;;
17570;SDS011;8903;52.220;20.978;2022-10-22T11:52:24;43.07;;;26.90;;
17570;SDS011;8903;52.220;20.978;2022-10-22T11:55:02;46.47;;;28.03;;
17570;SDS011;8903;52.220;20.978;2022-10-22T11:58:24;40.90;;;26.77;;
17570;SDS011;8903;52.220;20.978;2022-10-22T12:03:50;42.67;;;29.10;;
17570;SDS011;8903;52.220;20.978;2022-10-22T12:06:20;39.00;;;25.93;;
17570;SDS011;8903;52.220;20.978;2022-10-22T12:11:36;37.90;;;25.50;;
17570;SDS011;8903;52.220;20.978;2022-10-22T12:14:21;36.20;;;25.20;;
17570;SDS011;8903;52.220;20.978;2022-10-22T12:16:51;41.67;;;28.03;;
17570;SDS011;8903;52.220;20.978;2022-10-22T12:19:25;35.33;;;25.67;;
17570;SDS011;8903;52.220;20.978;2022-10-22T12:21:56;40.80;;;25.97;;
17570;SDS011;8903;52.220;20.978;2022-10-22T12:24:28;43.97;;;25.37;;
17570;SDS011;8903;52.220;20.978;2022-10-22T12:26:59;43.53;;;27.67;;
17570;SDS011;8903;52.220;20.978;2022-10-22T12:29:29;39.03;;;25.33;;
17570;SDS011;8903;52.220;20.978;2022-10-22T12:32:01;43.70;;;26.23;;
17570;SDS011;8903;52.220;20.978;2022-10-22T12:34:29;40.30;;;26.50;;
17570;SDS011;8903;52.220;20.978;2022-10-22T12:36:56;43.90;;;26.83;;
17570;SDS011;8903;52.220;20.978;2022-10-22T12:39:24;36.90;;;25.63;;
17570;SDS011;8903;52.220;20.978;2022-10-22T12:41:53;34.70;;;25.50;;
17570;SDS011;8903;52.220;20.978;2022-10-22T12:44:20;39.23;;;25.83;;
17570;SDS011;8903;52.220;20.978;2022-10-22T12:46:48;39.67;;;26.93;;
17570;SDS011;8903;52.220;20.978;2022-10-22T12:49:16;34.60;;;27.40;;
17570;SDS011;8903;52.220;20.978;2022-10-22T12:51:46;43.33;;;29.00;;
17570;SDS011;8903;52.220;20.978;2022-10-22T12:54:18;48.00;;;28.50;;
17570;SDS011;8903;52.220;20.978;2022-10-22T12:56:50;39.73;;;29.57;;
17570;SDS011;8903;52.220;20.978;2022-10-22T12:59:19;47.50;;;28.13;;
17570;SDS011;8903;52.220;20.978;2022-10-22T13:01:49;39.90;;;28.43;;
17570;SDS011;8903;52.220;20.978;2022-10-22T13:04:18;44.70;;;29.37;;
17570;SDS011;8903;52.220;20.978;2022-10-22T13:06:47;41.83;;;26.80;;
17570;SDS011;8903;52.220;20.978;2022-10-22T13:09:17;41.50;;;25.57;;
17570;SDS011;8903;52.220;20.978;2022-10-22T13:11:49;34.10;;;27.60;;
17570;SDS011;8903;52.220;20.978;2022-10-22T13:14:25;35.63;;;26.50;;
17570;SDS011;8903;52.220;20.978;2022-10-22T13:17:07;33.37;;;26.70;;
17570;SDS011;8903;52.220;20.978;2022-10-22T13:19:48;34.70;;;27.47;;
17570;SDS011;8903;52.220;20.978;2022-10-22T13:22:30;32.27;;;24.70;;
17570;SDS011;8903;52.220;20.978;2022-10-22T13:25:02;39.30;;;26.90;;
17570;SDS011;8903;52.220;20.978;2022-10-22T13:27:45;37.50;;;26.77;;
17570;SDS011;8903;52.220;20.978;2022-10-22T13:30:16;34.90;;;26.13;;
17570;SDS011;8903;52.220;20.978;2022-10-22T13:32:48;41.83;;;27.93;;
17570;SDS011;8903;52.220;20.978;2022-10-22T13:35:17;39.63;;;27.30;;
17570;SDS011;8903;52.220;20.978;2022-10-22T13:37:47;37.97;;;28.00;;
17570;SDS011;8903;52.220;20.978;2022-10-22T13:40:14;41.73;;;28.83;;
17570;SDS011;8903;52.220;20.978;2022-10-22T13:42:42;40.47;;;29.03;;
17570;SDS011;8903;52.220;20.978;2022-10-22T13:45:10;40.80;;;28.20;;
17570;SDS011;8903;52.220;20.978;2022-10-22T13:47:37;42.90;;;27.40;;
17570;SDS011;8903;52.220;20.978;2022-10-22T13:50:09;37.80;;;26.23;;
17570;SDS011;8903;52.220;20.978;2022-10-22T13:52:40;40.13;;;27.40;;
17570;SDS011;8903;52.220;20.978;2022-10-22T13:55:17;36.37;;;28.10;;
17570;SDS011;8903;52.220;20.978;2022-10-22T13:57:45;41.40;;;28.13;;
17570;SDS011;8903;52.220;20.978;2022-10-22T14:00:15;43.77;;;28.33;;
17570;SDS011;8903;52.220;20.978;2022-10-22T14:02:44;44.90;;;29.43;;
17570;SDS011;8903;52.220;20.978;2022-10-22T14:05:13;44.30;;;29.63;;
17570;SDS011;8903;52.220;20.978;2022-10-22T14:07:41;46.17;;;31.17;;
17570;SDS011;8903;52.220;20.978;2022-10-22T14:10:12;45.00;;;30.00;;
17570;SDS011;8903;52.220;20.978;2022-10-22T14:12:41;44.10;;;30.00;;
17570;SDS011;8903;52.220;20.978;2022-10-22T14:15:08;47.97;;;31.60;;
17570;SDS011;8903;52.220;20.978;2022-10-22T14:17:38;42.37;;;30.13;;
17570;SDS011;8903;52.220;20.978;2022-10-22T14:20:09;44.20;;;31.40;;
17570;SDS011;8903;52.220;20.978;2022-10-22T14:22:44;45.33;;;31.50;;
17570;SDS011;8903;52.220;20.978;2022-10-22T14:25:12;45.93;;;30.30;;
17570;SDS011;8903;52.220;20.978;2022-10-22T14:27:41;49.17;;;31.93;;
17570;SDS011;8903;52.220;20.978;2022-10-22T14:30:08;43.27;;;30.37;;
17570;SDS011;8903;52.220;20.978;2022-10-22T14:32:41;44.20;;;29.93;;
17570;SDS011;8903;52.220;20.978;2022-10-22T14:35:09;45.73;;;31.27;;
17570;SDS011;8903;52.220;20.978;2022-10-22T14:37:38;48.90;;;31.50;;
17570;SDS011;8903;52.220;20.978;2022-10-22T14:40:06;48.07;;;32.40;;
17570;SDS011;8903;52.220;20.978;2022-10-22T14:42:36;62.80;;;30.83;;
17570;SDS011;8903;52.220;20.978;2022-10-22T14:45:08;48.70;;;31.07;;
17570;SDS011;8903;52.220;20.978;2022-10-22T14:47:41;50.20;;;35.20;;
17570;SDS011;8903;52.220;20.978;2022-10-22T14:50:07;47.33;;;33.30;;
17570;SDS011;8903;52.220;20.978;2022-10-22T14:52:35;48.90;;;32.83;;